createdAt,value
2022-10-15T00:01:14.051Z,46.03
2022-10-15T00:03:43.254Z,47.33
2022-10-15T00:06:17.027Z,47.20
2022-10-15T00:08:45.104Z,45.80
2022-10-15T00:11:18.927Z,46.05
2022-10-15T00:13:46.373Z,44.55
2022-10-15T00:16:16.883Z,44.88
2022-10-15T00:18:44.112Z,46.47
2022-10-15T00:21:13.250Z,43.67
2022-10-15T00:23:40.443Z,44.60
2022-10-15T00:26:22.368Z,45.70
2022-10-15T00:28:52.039Z,44.45
2022-10-15T00:31:24.951Z,45.95
2022-10-15T00:33:53.218Z,45.40
2022-10-15T00:36:23.496Z,45.15
2022-10-15T00:38:51.569Z,43.42
2022-10-15T00:41:24.828Z,43.88
2022-10-15T00:43:53.495Z,41.67
2022-10-15T00:46:31.093Z,44.60
2022-10-15T00:49:24.650Z,45.65
2022-10-15T00:52:03.932Z,43.30
2022-10-15T00:54:35.086Z,45.50
2022-10-15T00:57:02.193Z,43.78
2022-10-15T00:59:31.776Z,42.35
2022-10-15T01:02:00.993Z,43.20
2022-10-15T01:04:29.567Z,42.25
2022-10-15T01:06:56.724Z,44.55
2022-10-15T01:09:24.206Z,43.40
2022-10-15T01:11:54.818Z,44.63
2022-10-15T01:14:53.380Z,44.55
2022-10-15T01:17:28.224Z,45.00
2022-10-15T01:19:58.177Z,42.13
2022-10-15T01:22:34.104Z,44.58
2022-10-15T01:25:15.470Z,41.72
2022-10-15T01:27:46.324Z,43.22
2022-10-15T01:30:24.538Z,44.92
2022-10-15T01:33:10.707Z,41.30
2022-10-15T01:36:05.562Z,41.78
2022-10-15T01:38:44.015Z,43.22
2022-10-15T01:41:36.559Z,43.95
2022-10-15T01:44:34.417Z,43.92
2022-10-15T01:47:28.093Z,44.25
2022-10-15T01:49:56.687Z,41.88
2022-10-15T01:52:28.095Z,43.67
2022-10-15T01:54:56.333Z,42.38
2022-10-15T01:57:26.486Z,39.83
2022-10-15T01:59:54.542Z,44.05
2022-10-15T02:02:24.220Z,41.90
2022-10-15T02:04:51.693Z,41.25
2022-10-15T02:07:38.305Z,41.83
2022-10-15T02:10:08.277Z,41.40
2022-10-15T02:13:13.112Z,43.10
2022-10-15T02:15:56.682Z,41.50
2022-10-15T02:18:44.937Z,43.85
2022-10-15T02:21:27.374Z,43.17
2022-10-15T02:24:06.711Z,42.28
2022-10-15T02:26:35.383Z,43.05
2022-10-15T02:29:06.255Z,42.92
2022-10-15T02:31:35.628Z,43.50
2022-10-15T02:34:06.525Z,41.65
2022-10-15T02:36:34.403Z,42.60
2022-10-15T02:39:07.366Z,42.55
2022-10-15T02:41:36.132Z,41.05
2022-10-15T02:44:04.317Z,42.13
2022-10-15T02:46:31.853Z,41.17
2022-10-15T02:48:59.568Z,41.67
2022-10-15T02:51:26.933Z,41.38
2022-10-15T02:53:54.105Z,40.40
2022-10-15T02:56:21.294Z,43.20
2022-10-15T02:58:48.824Z,38.88
2022-10-15T03:01:16.130Z,41.67
2022-10-15T03:03:43.416Z,43.10
2022-10-15T03:06:10.843Z,43.50
2022-10-15T03:08:38.107Z,39.08
2022-10-15T03:11:06.048Z,41.30
2022-10-15T03:13:36.688Z,40.33
2022-10-15T03:16:11.236Z,39.47
2022-10-15T03:18:41.100Z,40.45
2022-10-15T03:21:10.282Z,40.58
2022-10-15T03:23:38.598Z,41.08
2022-10-15T03:26:10.760Z,42.80
2022-10-15T03:28:38.576Z,41.58
2022-10-15T03:31:06.833Z,41.70
2022-10-15T03:33:34.111Z,40.30
2022-10-15T03:36:02.174Z,42.20
2022-10-15T03:38:29.579Z,42.40
2022-10-15T03:40:58.053Z,41.50
2022-10-15T03:43:38.936Z,42.42
2022-10-15T03:46:09.653Z,43.80
2022-10-15T03:48:41.145Z,44.47
2022-10-15T03:51:10.364Z,43.63
2022-10-15T03:53:38.412Z,42.25
2022-10-15T03:56:07.433Z,42.47
2022-10-15T03:58:38.332Z,44.13
2022-10-15T04:01:11.277Z,42.67
2022-10-15T04:03:39.135Z,42.55
2022-10-15T04:06:06.631Z,43.25
2022-10-15T04:08:35.202Z,42.80
2022-10-15T04:11:13.464Z,42.75
2022-10-15T04:13:40.772Z,41.45
2022-10-15T04:16:08.503Z,45.55
2022-10-15T04:18:35.824Z,42.90
2022-10-15T04:21:03.146Z,41.45
2022-10-15T04:23:33.405Z,42.63
2022-10-15T04:26:29.781Z,41.17
2022-10-15T04:29:00.291Z,40.83
2022-10-15T04:31:28.503Z,44.67
2022-10-15T04:33:57.463Z,39.92
2022-10-15T04:36:24.871Z,40.88
2022-10-15T04:39:00.048Z,43.40
2022-10-15T04:41:34.843Z,42.00
2022-10-15T04:44:08.882Z,40.60
2022-10-15T04:46:37.673Z,44.75
2022-10-15T04:49:21.097Z,40.53
2022-10-15T04:51:48.313Z,44.28
2022-10-15T04:54:21.387Z,40.47
2022-10-15T04:57:00.194Z,40.95
2022-10-15T04:59:27.860Z,40.60
2022-10-15T05:02:24.392Z,42.95
2022-10-15T05:04:56.805Z,41.03
2022-10-15T05:07:24.852Z,41.00
2022-10-15T05:09:53.924Z,41.25
2022-10-15T05:12:21.433Z,44.53
2022-10-15T05:14:48.638Z,42.15
2022-10-15T05:17:22.074Z,41.13
2022-10-15T05:19:49.654Z,42.72
2022-10-15T05:22:21.244Z,41.85
2022-10-15T05:24:55.094Z,40.97
2022-10-15T05:27:28.101Z,39.22
2022-10-15T05:29:55.403Z,43.17
2022-10-15T05:32:27.660Z,39.38
2022-10-15T05:34:54.976Z,40.30
2022-10-15T05:37:23.001Z,41.20
2022-10-15T05:39:50.376Z,42.92
2022-10-15T05:42:17.637Z,39.03
2022-10-15T05:44:52.371Z,38.05
2022-10-15T05:47:21.156Z,39.72
2022-10-15T05:49:48.743Z,41.88
2022-10-15T05:52:23.557Z,39.63
2022-10-15T05:55:09.560Z,39.67
2022-10-15T05:57:37.008Z,37.90
2022-10-15T06:00:06.600Z,37.78
2022-10-15T06:02:39.035Z,36.40
2022-10-15T06:05:06.920Z,37.70
2022-10-15T06:07:34.348Z,37.97
2022-10-15T06:10:05.753Z,39.22
2022-10-15T06:12:34.643Z,36.55
2022-10-15T06:15:02.006Z,38.90
2022-10-15T06:17:29.147Z,37.20
2022-10-15T06:19:56.195Z,36.92
2022-10-15T06:22:23.489Z,36.25
2022-10-15T06:24:50.844Z,36.45
2022-10-15T06:27:17.938Z,38.45
2022-10-15T06:29:45.117Z,36.08
2022-10-15T06:32:12.710Z,36.50
2022-10-15T06:34:43.875Z,35.88
2022-10-15T06:37:11.163Z,36.50
2022-10-15T06:39:38.433Z,36.15
2022-10-15T06:42:05.574Z,34.63
2022-10-15T06:44:42.245Z,37.53
2022-10-15T06:47:10.351Z,35.28
2022-10-15T06:49:37.593Z,35.95
2022-10-15T06:52:04.906Z,36.20
2022-10-15T06:54:32.167Z,37.65
2022-10-15T06:56:59.258Z,36.47
2022-10-15T06:59:26.445Z,36.67
2022-10-15T07:01:54.848Z,35.60
2022-10-15T07:04:24.513Z,37.63
2022-10-15T07:06:51.949Z,36.20
2022-10-15T07:09:20.738Z,35.05
2022-10-15T07:11:47.882Z,34.72
2022-10-15T07:14:14.944Z,35.42
2022-10-15T07:16:42.312Z,38.92
2022-10-15T07:19:09.399Z,52.28
2022-10-15T07:21:36.896Z,41.05
2022-10-15T07:24:04.414Z,40.47
2022-10-15T07:26:31.868Z,36.15
2022-10-15T07:29:03.802Z,38.53
2022-10-15T07:31:31.375Z,45.22
2022-10-15T07:33:58.827Z,40.47
2022-10-15T07:36:26.887Z,33.03
2022-10-15T07:38:54.015Z,36.05
2022-10-15T07:41:22.163Z,34.50
2022-10-15T07:43:52.458Z,42.17
2022-10-15T07:48:48.487Z,41.15
2022-10-15T07:51:15.675Z,32.53
2022-10-15T07:53:44.362Z,33.55
2022-10-15T07:56:12.705Z,30.80
2022-10-15T07:58:40.613Z,33.55
2022-10-15T08:01:10.146Z,31.90
2022-10-15T08:03:38.497Z,30.63
2022-10-15T08:06:07.658Z,32.00
2022-10-15T08:08:35.786Z,30.92
2022-10-15T08:11:08.384Z,31.02
2022-10-15T08:13:35.587Z,30.95
2022-10-15T08:16:03.215Z,30.70
2022-10-15T08:18:30.269Z,31.17
2022-10-15T08:21:00.794Z,29.02
2022-10-15T08:23:28.669Z,29.13
2022-10-15T08:25:58.578Z,29.20
2022-10-15T08:28:26.393Z,28.25
2022-10-15T08:30:53.873Z,28.48
2022-10-15T08:33:21.119Z,27.17
2022-10-15T08:35:48.384Z,29.10
2022-10-15T08:38:19.018Z,28.38
2022-10-15T08:40:55.735Z,28.77
2022-10-15T08:43:40.787Z,28.88
2022-10-15T08:46:21.115Z,25.88
2022-10-15T08:48:53.688Z,26.60
2022-10-15T08:51:24.476Z,28.02
2022-10-15T08:53:58.543Z,26.90
2022-10-15T08:56:34.263Z,25.58
2022-10-15T08:59:13.967Z,25.73
2022-10-15T09:01:59.259Z,26.60
2022-10-15T09:04:47.575Z,27.15
2022-10-15T09:07:33.563Z,26.30
2022-10-15T09:10:52.221Z,24.52
2022-10-15T09:13:32.079Z,26.77
2022-10-15T09:16:05.653Z,26.23
2022-10-15T09:18:36.584Z,25.98
2022-10-15T09:21:06.005Z,27.02
2022-10-15T09:23:34.869Z,27.60
2022-10-15T09:26:02.257Z,26.13
2022-10-15T09:28:39.886Z,27.00
2022-10-15T09:31:10.535Z,27.00
2022-10-15T09:33:47.102Z,27.10
2022-10-15T09:36:34.418Z,27.90
2022-10-15T09:39:23.192Z,27.60
2022-10-15T09:41:54.186Z,26.85
2022-10-15T09:44:24.863Z,27.95
2022-10-15T09:46:52.443Z,27.38
2022-10-15T09:49:31.261Z,27.80
2022-10-15T09:52:11.942Z,27.33
2022-10-15T09:55:30.013Z,28.00
2022-10-15T09:58:02.325Z,26.30
2022-10-15T10:00:59.907Z,27.38
2022-10-15T10:03:36.605Z,27.00
2022-10-15T10:06:14.760Z,27.20
2022-10-15T10:08:52.544Z,28.33
2022-10-15T10:11:21.188Z,27.77
2022-10-15T10:13:48.475Z,27.77
2022-10-15T10:16:18.559Z,26.67
2022-10-15T10:19:07.030Z,27.05
2022-10-15T10:21:37.658Z,26.92
2022-10-15T10:24:30.410Z,26.33
2022-10-15T10:27:02.713Z,26.90
2022-10-15T10:29:34.801Z,24.80
2022-10-15T10:32:19.487Z,26.45
2022-10-15T10:34:52.283Z,26.27
2022-10-15T10:37:21.170Z,25.60
2022-10-15T10:39:57.690Z,26.17
2022-10-15T10:42:24.981Z,26.33
2022-10-15T10:44:53.919Z,25.95
2022-10-15T10:47:22.322Z,27.10
2022-10-15T10:49:58.471Z,25.50
2022-10-15T10:52:27.136Z,25.80
2022-10-15T10:55:01.690Z,26.50
2022-10-15T10:57:40.759Z,25.95
2022-10-15T11:00:12.334Z,27.25
2022-10-15T11:02:44.093Z,27.23
2022-10-15T11:05:13.295Z,26.52
2022-10-15T11:08:14.506Z,26.33
2022-10-15T11:10:58.927Z,26.88
2022-10-15T11:13:41.235Z,26.20
2022-10-15T11:16:15.335Z,27.58
2022-10-15T11:19:19.856Z,26.15
2022-10-15T11:21:56.290Z,25.33
2022-10-15T11:24:33.523Z,25.30
2022-10-15T11:27:27.595Z,25.48
2022-10-15T11:30:29.773Z,26.05
2022-10-15T11:33:25.266Z,25.65
2022-10-15T11:36:11.224Z,23.90
2022-10-15T11:38:46.448Z,24.10
2022-10-15T11:41:28.639Z,24.75
2022-10-15T11:44:39.310Z,24.27
2022-10-15T11:47:47.639Z,22.25
2022-10-15T11:50:41.574Z,24.40
2022-10-15T11:53:33.662Z,22.48
2022-10-15T11:56:21.116Z,24.10
2022-10-15T11:59:00.905Z,22.67
2022-10-15T12:01:38.493Z,23.65
2022-10-15T12:07:05.289Z,24.00
2022-10-15T12:09:37.726Z,24.10
2022-10-15T12:12:12.534Z,24.05
2022-10-15T12:14:39.673Z,25.00
2022-10-15T12:17:17.642Z,23.35
2022-10-15T12:19:59.520Z,24.48
2022-10-15T12:22:40.567Z,23.30
2022-10-15T12:25:46.815Z,25.83
2022-10-15T12:28:20.982Z,23.88
2022-10-15T12:31:03.297Z,25.27
2022-10-15T12:33:45.533Z,23.60
2022-10-15T12:36:30.522Z,23.55
2022-10-15T12:39:16.215Z,24.98
2022-10-15T12:41:55.286Z,24.58
2022-10-15T12:44:33.856Z,25.45
2022-10-15T12:47:01.219Z,25.85
2022-10-15T12:49:30.582Z,24.95
2022-10-15T12:51:59.644Z,26.42
2022-10-15T12:54:34.495Z,24.08
2022-10-15T12:57:05.258Z,23.38
2022-10-15T12:59:44.784Z,25.95
2022-10-15T13:02:34.148Z,24.53
2022-10-15T13:05:01.668Z,23.30
2022-10-15T13:07:28.988Z,23.77
2022-10-15T13:09:56.566Z,26.88
2022-10-15T13:12:29.029Z,25.05
2022-10-15T13:15:04.053Z,20.65
2022-10-15T13:17:34.148Z,20.42
2022-10-15T13:20:08.204Z,20.23
2022-10-15T13:22:37.467Z,21.08
2022-10-15T13:25:05.187Z,20.10
2022-10-15T13:27:38.024Z,19.90
2022-10-15T13:30:14.486Z,20.42
2022-10-15T13:32:53.053Z,20.15
2022-10-15T13:35:26.407Z,20.80
2022-10-15T13:37:53.665Z,19.55
2022-10-15T13:40:29.680Z,20.58
2022-10-15T13:43:17.048Z,20.67
2022-10-15T13:45:55.258Z,20.33
2022-10-15T13:48:25.311Z,21.48
2022-10-15T13:51:04.988Z,19.70
2022-10-15T13:53:37.956Z,21.15
2022-10-15T13:56:36.291Z,20.02
2022-10-15T13:59:04.283Z,18.67
2022-10-15T14:01:34.699Z,18.83
2022-10-15T14:04:04.212Z,19.25
2022-10-15T14:06:34.756Z,18.60
2022-10-15T14:09:28.978Z,19.83
2022-10-15T14:12:00.669Z,18.50
2022-10-15T14:14:42.205Z,19.10
2022-10-15T14:17:17.595Z,17.48
2022-10-15T14:20:08.254Z,14.82
2022-10-15T14:22:41.394Z,16.77
2022-10-15T14:27:46.614Z,16.95
2022-10-15T14:30:21.086Z,18.80
2022-10-15T14:32:54.313Z,16.95
2022-10-15T14:35:31.242Z,17.30
2022-10-15T14:38:04.033Z,15.57
2022-10-15T14:40:31.543Z,14.70
2022-10-15T14:43:17.101Z,13.27
2022-10-15T14:45:58.602Z,12.18
2022-10-15T14:48:36.486Z,11.90
2022-10-15T14:51:06.748Z,11.90
2022-10-15T14:53:37.474Z,11.00
2022-10-15T14:56:14.389Z,9.80
2022-10-15T14:58:52.197Z,9.38
2022-10-15T15:01:21.008Z,11.10
2022-10-15T15:03:51.132Z,10.57
2022-10-15T15:06:18.926Z,10.70
2022-10-15T15:08:46.873Z,11.32
2022-10-15T15:11:18.386Z,12.38
2022-10-15T15:13:46.582Z,12.45
2022-10-15T15:16:15.251Z,12.23
2022-10-15T15:18:44.202Z,12.45
2022-10-15T15:21:15.449Z,12.77
2022-10-15T15:23:43.535Z,13.82
2022-10-15T15:26:10.807Z,13.73
2022-10-15T15:28:38.319Z,14.40
2022-10-15T15:31:08.642Z,16.60
2022-10-15T15:36:07.938Z,16.35
2022-10-15T15:41:14.795Z,18.02
2022-10-15T15:43:43.054Z,17.73
2022-10-15T15:46:10.861Z,18.20
2022-10-15T15:48:38.629Z,18.33
2022-10-15T15:51:10.353Z,16.83
2022-10-15T15:53:37.431Z,17.50
2022-10-15T15:56:04.854Z,17.05
2022-10-15T15:58:32.163Z,17.27
2022-10-15T16:00:59.643Z,17.77
2022-10-15T16:03:27.116Z,18.45
2022-10-15T16:05:54.576Z,18.20
2022-10-15T16:08:21.967Z,18.33
2022-10-15T16:10:49.262Z,18.90
2022-10-15T16:13:16.546Z,19.33
2022-10-15T16:15:43.672Z,19.38
2022-10-15T16:18:12.360Z,19.73
2022-10-15T16:20:46.375Z,18.67
2022-10-15T16:23:16.371Z,20.02
2022-10-15T16:25:43.704Z,19.75
2022-10-15T16:28:11.014Z,19.00
2022-10-15T16:30:38.117Z,19.35
2022-10-15T16:35:34.327Z,20.80
2022-10-15T16:38:01.585Z,19.38
2022-10-15T16:40:28.763Z,20.95
2022-10-15T16:42:55.904Z,20.73
2022-10-15T16:45:23.107Z,20.83
2022-10-15T16:47:50.331Z,21.00
2022-10-15T16:50:17.612Z,21.20
2022-10-15T16:52:44.834Z,20.67
2022-10-15T16:55:12.367Z,21.88
2022-10-15T16:57:39.724Z,21.83
2022-10-15T17:00:07.404Z,22.08
2022-10-15T17:02:34.526Z,22.15
2022-10-15T17:05:01.776Z,21.70
2022-10-15T17:07:28.897Z,22.27
2022-10-15T17:09:56.923Z,22.20
2022-10-15T17:12:24.355Z,22.33
2022-10-15T17:14:52.235Z,21.83
2022-10-15T17:17:20.058Z,22.60
2022-10-15T17:19:47.553Z,23.17
2022-10-15T17:22:14.713Z,23.67
2022-10-15T17:24:41.884Z,23.20
2022-10-15T17:27:09.033Z,23.17
2022-10-15T17:29:36.309Z,23.02
2022-10-15T17:32:04.327Z,23.63
2022-10-15T17:34:31.594Z,23.02
2022-10-15T17:36:58.694Z,24.35
2022-10-15T17:39:25.868Z,24.63
2022-10-15T17:41:53.023Z,23.65
2022-10-15T17:44:20.678Z,23.77
2022-10-15T17:49:18.955Z,23.50
2022-10-15T17:51:46.701Z,24.17
2022-10-15T17:54:14.326Z,24.45
2022-10-15T17:56:41.633Z,24.25
2022-10-15T17:59:11.864Z,23.88
2022-10-15T18:04:31.039Z,25.00
2022-10-15T18:06:58.403Z,24.02
2022-10-15T18:09:27.440Z,24.48
2022-10-15T18:12:01.288Z,23.33
2022-10-15T18:14:30.876Z,24.42
2022-10-15T18:16:58.075Z,24.48
2022-10-15T18:19:26.959Z,24.25
2022-10-15T18:21:54.454Z,24.35
2022-10-15T18:24:23.622Z,24.45
2022-10-15T18:26:51.545Z,24.63
2022-10-15T18:29:19.164Z,23.85
2022-10-15T18:31:47.410Z,25.00
2022-10-15T18:34:14.634Z,23.80
2022-10-15T18:36:43.846Z,23.88
2022-10-15T18:39:11.405Z,24.95
2022-10-15T18:41:40.349Z,23.60
2022-10-15T18:44:14.945Z,23.20
2022-10-15T18:46:45.195Z,24.58
2022-10-15T18:51:40.407Z,25.52
2022-10-15T18:54:08.857Z,25.92
2022-10-15T18:56:36.230Z,27.55
2022-10-15T18:59:03.516Z,26.88
2022-10-15T19:01:39.298Z,25.80
2022-10-15T19:04:10.433Z,25.63
2022-10-15T19:06:41.276Z,25.45
2022-10-15T19:09:12.334Z,26.25
2022-10-15T19:11:41.373Z,24.35
2022-10-15T19:14:09.012Z,24.85
2022-10-15T19:16:36.777Z,23.33
2022-10-15T19:19:08.875Z,23.15
2022-10-15T19:21:37.730Z,23.83
2022-10-15T19:24:05.818Z,23.45
2022-10-15T19:26:33.123Z,23.35
2022-10-15T19:29:02.379Z,23.77
2022-10-15T19:31:33.733Z,24.35
2022-10-15T19:34:01.088Z,24.58
2022-10-15T19:36:35.219Z,25.23
2022-10-15T19:39:12.092Z,24.40
2022-10-15T19:41:41.377Z,24.40
2022-10-15T19:44:09.516Z,24.30
2022-10-15T19:46:37.731Z,25.13
2022-10-15T19:49:07.915Z,24.73
2022-10-15T19:51:35.303Z,24.95
2022-10-15T19:54:02.567Z,26.27
2022-10-15T19:56:32.243Z,25.55
2022-10-15T19:59:07.073Z,26.25
2022-10-15T20:01:34.574Z,27.08
2022-10-15T20:04:05.918Z,26.92
2022-10-15T20:06:35.705Z,27.55
2022-10-15T20:09:03.713Z,27.05
2022-10-15T20:11:31.209Z,27.42
2022-10-15T20:14:01.914Z,27.25
2022-10-15T20:16:32.826Z,27.67
2022-10-15T20:19:03.094Z,29.13
2022-10-15T20:21:32.313Z,28.33
2022-10-15T20:23:59.956Z,28.65
2022-10-15T20:26:27.167Z,26.77
2022-10-15T20:28:54.511Z,27.08
2022-10-15T20:31:21.935Z,27.23
2022-10-15T20:33:49.685Z,27.08
2022-10-15T20:36:23.541Z,26.02
2022-10-15T20:38:51.724Z,25.65
2022-10-15T20:41:19.157Z,26.40
2022-10-15T20:43:54.639Z,27.85
2022-10-15T20:46:33.058Z,27.25
2022-10-15T20:49:09.517Z,27.90
2022-10-15T20:51:40.073Z,27.23
2022-10-15T20:56:34.713Z,28.17
2022-10-15T20:59:02.134Z,27.88
2022-10-15T21:01:29.365Z,28.95
2022-10-15T21:03:56.718Z,28.80
2022-10-15T21:06:24.000Z,29.52
2022-10-15T21:08:51.186Z,30.52
2022-10-15T21:11:18.735Z,29.45
2022-10-15T21:13:45.863Z,29.30
2022-10-15T21:16:13.576Z,28.67
2022-10-15T21:18:40.716Z,29.60
2022-10-15T21:21:10.472Z,27.38
2022-10-15T21:23:39.192Z,29.20
2022-10-15T21:26:07.276Z,30.50
2022-10-15T21:28:35.489Z,27.83
2022-10-15T21:31:10.263Z,29.67
2022-10-15T21:33:37.817Z,29.77
2022-10-15T21:36:15.747Z,30.48
2022-10-15T21:38:42.992Z,31.35
2022-10-15T21:41:10.632Z,29.98
2022-10-15T21:43:38.393Z,31.33
2022-10-15T21:46:11.953Z,32.22
2022-10-15T21:48:41.041Z,30.90
2022-10-15T21:51:14.771Z,31.52
2022-10-15T21:53:43.132Z,33.88
2022-10-15T21:56:11.481Z,34.42
2022-10-15T21:58:40.161Z,31.63
2022-10-15T22:01:25.219Z,31.48
2022-10-15T22:03:57.862Z,33.10
2022-10-15T22:06:26.704Z,32.30
2022-10-15T22:08:54.808Z,31.30
2022-10-15T22:14:02.140Z,33.13
2022-10-15T22:16:30.094Z,33.67
2022-10-15T22:18:57.701Z,37.58
2022-10-15T22:21:29.736Z,33.33
2022-10-15T22:24:06.724Z,30.63
2022-10-15T22:26:36.775Z,31.17
2022-10-15T22:29:06.561Z,29.92
2022-10-15T22:31:34.673Z,31.20
2022-10-15T22:34:02.598Z,29.85
2022-10-15T22:36:31.312Z,30.23
2022-10-15T22:39:05.619Z,30.15
2022-10-15T22:41:40.154Z,29.55
2022-10-15T22:44:08.923Z,30.38
2022-10-15T22:46:38.845Z,29.15
2022-10-15T22:49:08.157Z,30.58
2022-10-15T22:51:35.876Z,28.23
2022-10-15T22:54:02.992Z,30.45
2022-10-15T22:56:30.652Z,31.90
2022-10-15T22:58:58.896Z,30.55
2022-10-15T23:01:28.413Z,29.20
2022-10-15T23:04:01.841Z,31.55
2022-10-15T23:06:30.337Z,30.33
2022-10-15T23:08:58.263Z,32.25
2022-10-15T23:11:34.613Z,30.65
2022-10-15T23:14:11.605Z,31.08
2022-10-15T23:16:41.938Z,31.00
2022-10-15T23:19:16.648Z,29.90
2022-10-15T23:22:02.892Z,30.33
2022-10-15T23:24:30.203Z,32.65
2022-10-15T23:26:57.532Z,31.42
2022-10-15T23:29:26.285Z,32.03
2022-10-15T23:31:54.905Z,30.17
2022-10-15T23:34:24.874Z,29.70
2022-10-15T23:36:53.057Z,30.60
2022-10-15T23:39:23.808Z,29.40
2022-10-15T23:41:51.159Z,29.40
2022-10-15T23:44:18.742Z,29.85
2022-10-15T23:46:46.623Z,28.85
2022-10-15T23:49:14.285Z,27.63
2022-10-15T23:51:41.611Z,27.83
2022-10-15T23:54:18.055Z,27.52
2022-10-15T23:56:47.097Z,27.60
2022-10-15T23:59:15.153Z,27.58
